Time,TemperatureF,DewpointF,PressureIn,WindDirection,WindDirectionDegrees,WindSpeedMPH,WindSpeedGustMPH,Humidity,HourlyPrecipIn,Conditions,Clouds,dailyrainin,SoftwareType,DateUTC
2013-07-27 00:02:00,85.0,-99.9,30.00,SW,231,5.0,9.0,-999,-99.99,,,-99.99,,2013-07-27 05:02:00,
2013-07-27 00:12:00,85.0,-99.9,30.00,SW,227,6.0,9.0,-999,-99.99,,,-99.99,,2013-07-27 05:12:00,
2013-07-27 00:22:00,85.0,-99.9,30.00,SW,227,6.0,9.0,-999,-99.99,,,-99.99,,2013-07-27 05:22:00,
2013-07-27 00:33:00,84.0,-99.9,30.00,SSW,211,6.0,8.0,-999,-99.99,,,-99.99,,2013-07-27 05:33:00,
2013-07-27 00:43:00,84.0,-99.9,30.00,SSW,203,5.0,9.0,-999,-99.99,,,-99.99,,2013-07-27 05:43:00,
2013-07-27 00:52:00,84.0,-99.9,30.00,SW,216,5.0,9.0,-999,-99.99,,,-99.99,,2013-07-27 05:52:00,
2013-07-27 01:03:00,84.0,-99.9,30.00,SW,217,6.0,10.0,-999,-99.99,,,-99.99,,2013-07-27 06:03:00,
2013-07-27 01:12:00,84.0,-99.9,30.00,SW,214,6.0,11.0,-999,-99.99,,,-99.99,,2013-07-27 06:12:00,
2013-07-27 01:33:00,84.0,-99.9,29.99,SSW,211,10.0,13.0,-999,-99.99,,,-99.99,,2013-07-27 06:33:00,
2013-07-27 01:43:00,84.0,-99.9,29.99,SSW,208,8.0,13.0,-999,-99.99,,,-99.99,,2013-07-27 06:43:00,
2013-07-27 01:52:00,84.0,-99.9,29.99,SSW,213,9.0,13.0,-999,-99.99,,,-99.99,,2013-07-27 06:52:00,
2013-07-27 02:02:00,84.0,-99.9,29.99,SSW,213,7.0,12.0,-999,-99.99,,,-99.99,,2013-07-27 07:02:00,
2013-07-27 02:12:00,84.0,-99.9,29.99,SSW,213,7.0,12.0,-999,-99.99,,,-99.99,,2013-07-27 07:12:00,
2013-07-27 02:34:00,84.0,-99.9,29.98,SW,223,8.0,13.0,-999,-99.99,,,-99.99,,2013-07-27 07:34:00,
2013-07-27 02:44:00,84.0,-99.9,29.98,SW,224,10.0,13.0,-999,-99.99,,,-99.99,,2013-07-27 07:44:00,
2013-07-27 02:53:00,84.0,-99.9,29.98,SW,227,9.0,14.0,-999,-99.99,,,-99.99,,2013-07-27 07:53:00,
2013-07-27 03:02:00,84.0,-99.9,29.98,SW,227,9.0,13.0,-999,-99.99,,,-99.99,,2013-07-27 08:02:00,
2013-07-27 03:12:00,84.0,-99.9,29.98,SW,227,9.0,12.0,-999,-99.99,,,-99.99,,2013-07-27 08:12:00,
2013-07-27 03:32:00,84.0,-99.9,29.97,SW,217,8.0,9.0,-999,-99.99,,,-99.99,,2013-07-27 08:32:00,
2013-07-27 03:43:00,84.0,-99.9,29.97,SW,225,8.0,11.0,-999,-99.99,,,-99.99,,2013-07-27 08:43:00,
2013-07-27 03:53:00,84.0,-99.9,29.97,SW,226,9.0,12.0,-999,-99.99,,,-99.99,,2013-07-27 08:53:00,
2013-07-27 04:02:00,84.0,-99.9,29.97,SW,222,8.0,11.0,-999,-99.99,,,-99.99,,2013-07-27 09:02:00,
2013-07-27 04:12:00,84.0,-99.9,29.96,SW,220,7.0,9.0,-999,-99.99,,,-99.99,,2013-07-27 09:12:00,
2013-07-27 04:33:00,84.0,-99.9,29.97,WSW,253,6.0,10.0,-999,-99.99,,,-99.99,,2013-07-27 09:33:00,
2013-07-27 04:44:00,84.0,-99.9,29.97,West,261,6.0,13.0,-999,-99.99,,,-99.99,,2013-07-27 09:44:00,
2013-07-27 04:52:00,84.0,-99.9,29.97,WSW,258,6.0,11.0,-999,-99.99,,,-99.99,,2013-07-27 09:52:00,
2013-07-27 05:02:00,84.0,-99.9,29.97,West,259,9.0,12.0,-999,-99.99,,,-99.99,,2013-07-27 10:02:00,
2013-07-27 05:12:00,84.0,-99.9,29.97,WSW,255,7.0,13.0,-999,-99.99,,,-99.99,,2013-07-27 10:12:00,
2013-07-27 05:32:00,84.0,-99.9,29.97,West,266,8.0,11.0,-999,-99.99,,,-99.99,,2013-07-27 10:32:00,
2013-07-27 05:44:00,83.0,-99.9,29.97,West,259,7.0,13.0,-999,-99.99,,,-99.99,,2013-07-27 10:44:00,
2013-07-27 05:52:00,83.0,-99.9,29.97,West,264,8.0,13.0,-999,-99.99,,,-99.99,,2013-07-27 10:52:00,
2013-07-27 06:02:00,83.0,-99.9,29.98,West,267,6.0,10.0,-999,-99.99,,,-99.99,,2013-07-27 11:02:00,
2013-07-27 06:12:00,83.0,-99.9,29.98,West,270,7.0,11.0,-999,-99.99,,,-99.99,,2013-07-27 11:12:00,
2013-07-27 06:32:00,83.0,-99.9,29.99,West,276,6.0,9.0,-999,-99.99,,,-99.99,,2013-07-27 11:32:00,
2013-07-27 06:44:00,83.0,-99.9,29.99,West,277,7.0,9.0,-999,-99.99,,,-99.99,,2013-07-27 11:44:00,
2013-07-27 06:53:00,83.0,-99.9,29.99,West,279,5.0,6.0,-999,-99.99,,,-99.99,,2013-07-27 11:53:00,
2013-07-27 07:03:00,83.0,-99.9,29.99,West,266,6.0,10.0,-999,-99.99,,,-99.99,,2013-07-27 12:03:00,
2013-07-27 07:13:00,83.0,-99.9,29.99,West,265,7.0,17.0,-999,-99.99,,,-99.99,,2013-07-27 12:13:00,
2013-07-27 07:33:00,78.0,-99.9,30.01,WSW,256,13.0,18.0,-999,-99.99,,,-99.99,,2013-07-27 12:33:00,
2013-07-27 07:43:00,77.0,-99.9,30.01,WSW,257,10.0,20.0,-999,-99.99,,,-99.99,,2013-07-27 12:43:00,
2013-07-27 07:52:00,76.0,-99.9,30.02,West,268,12.0,16.0,-999,-99.99,,,-99.99,,2013-07-27 12:52:00,
2013-07-27 08:12:00,76.0,-99.9,30.01,WNW,284,5.0,7.0,-999,-99.99,,,-99.99,,2013-07-27 13:12:00,
2013-07-27 08:32:00,77.0,-99.9,30.01,WNW,299,5.0,7.0,-999,-99.99,,,-99.99,,2013-07-27 13:32:00,
2013-07-27 08:44:00,77.0,-99.9,30.01,NW,312,5.0,6.0,-999,-99.99,,,-99.99,,2013-07-27 13:44:00,
2013-07-27 08:53:00,79.0,-99.9,29.99,NW,325,3.0,3.0,-999,-99.99,,,-99.99,,2013-07-27 13:53:00,
2013-07-27 09:02:00,80.0,-99.9,30.00,WNW,293,4.0,4.0,-999,-99.99,,,-99.99,,2013-07-27 14:02:00,
2013-07-27 09:12:00,80.0,-99.9,29.99,NW,304,2.0,3.0,-999,-99.99,,,-99.99,,2013-07-27 14:12:00,
2013-07-27 09:33:00,81.0,-99.9,29.99,West,269,4.0,6.0,-999,-99.99,,,-99.99,,2013-07-27 14:33:00,
2013-07-27 09:44:00,81.0,-99.9,29.99,WSW,253,5.0,7.0,-999,-99.99,,,-99.99,,2013-07-27 14:44:00,
2013-07-27 09:54:00,81.0,-99.9,29.99,West,263,5.0,6.0,-999,-99.99,,,-99.99,,2013-07-27 14:54:00,
2013-07-27 10:02:00,82.0,-99.9,29.99,West,273,2.0,3.0,-999,-99.99,,,-99.99,,2013-07-27 15:02:00,
2013-07-27 10:12:00,82.0,-99.9,29.99,West,273,2.0,4.0,-999,-99.99,,,-99.99,,2013-07-27 15:12:00,
2013-07-27 10:33:00,83.0,-99.9,29.99,NW,317,5.0,7.0,-999,-99.99,,,-99.99,,2013-07-27 15:33:00,
2013-07-27 10:44:00,83.0,-99.9,29.99,NW,323,5.0,6.0,-999,-99.99,,,-99.99,,2013-07-27 15:44:00,
2013-07-27 10:53:00,83.0,-99.9,29.99,NW,316,5.0,6.0,-999,-99.99,,,-99.99,,2013-07-27 15:53:00,
2013-07-27 11:02:00,83.0,-99.9,29.99,NW,313,4.0,4.0,-999,-99.99,,,-99.99,,2013-07-27 16:02:00,
2013-07-27 11:12:00,83.0,-99.9,29.99,WNW,292,2.0,3.0,-999,-99.99,,,-99.99,,2013-07-27 16:12:00,
2013-07-27 11:33:00,83.0,-99.9,30.00,West,271,3.0,4.0,-999,-99.99,,,-99.99,,2013-07-27 16:33:00,
2013-07-27 11:43:00,83.0,-99.9,29.99,WNW,287,1.0,2.0,-999,-99.99,,,-99.99,,2013-07-27 16:43:00,
2013-07-27 11:54:00,83.0,-99.9,30.00,WNW,290,3.0,4.0,-999,-99.99,,,-99.99,,2013-07-27 16:54:00,
2013-07-27 12:02:00,83.0,-99.9,29.99,NNE,13,2.0,19.0,-999,-99.99,,,-99.99,,2013-07-27 17:02:00,
2013-07-27 12:13:00,81.0,-99.9,30.03,West,260,17.0,26.0,-999,-99.99,,,-99.99,,2013-07-27 17:13:00,
2013-07-27 12:32:00,74.0,-99.9,30.02,NW,307,20.0,22.0,-999,-99.99,,,-99.99,,2013-07-27 17:32:00,
2013-07-27 12:43:00,74.0,-99.9,30.02,NW,319,16.0,17.0,-999,-99.99,,,-99.99,,2013-07-27 17:43:00,
2013-07-27 12:54:00,76.0,-99.9,30.00,NNW,337,7.0,9.0,-999,-99.99,,,-99.99,,2013-07-27 17:54:00,
2013-07-27 13:03:00,76.0,-99.9,30.00,NNE,28,5.0,6.0,-999,-99.99,,,-99.99,,2013-07-27 18:03:00,
2013-07-27 13:12:00,76.0,-99.9,30.00,NE,43,4.0,6.0,-999,-99.99,,,-99.99,,2013-07-27 18:12:00,
2013-07-27 13:33:00,78.0,-99.9,29.99,ENE,77,5.0,5.0,-999,-99.99,,,-99.99,,2013-07-27 18:33:00,
2013-07-27 13:43:00,78.0,-99.9,29.99,East,99,4.0,5.0,-999,-99.99,,,-99.99,,2013-07-27 18:43:00,
2013-07-27 13:53:00,79.0,-99.9,29.98,SE,134,4.0,5.0,-999,-99.99,,,-99.99,,2013-07-27 18:53:00,
2013-07-27 14:02:00,79.0,-99.9,29.98,SE,131,5.0,6.0,-999,-99.99,,,-99.99,,2013-07-27 19:02:00,
2013-07-27 14:12:00,80.0,-99.9,29.98,SE,127,6.0,7.0,-999,-99.99,,,-99.99,,2013-07-27 19:12:00,
2013-07-27 14:32:00,80.0,-99.9,29.98,South,185,3.0,6.0,-999,-99.99,,,-99.99,,2013-07-27 19:32:00,
2013-07-27 14:43:00,80.0,-99.9,29.98,SSE,168,5.0,6.0,-999,-99.99,,,-99.99,,2013-07-27 19:43:00,
2013-07-27 14:53:00,80.0,-99.9,29.98,SSE,163,6.0,7.0,-999,-99.99,,,-99.99,,2013-07-27 19:53:00,
2013-07-27 15:02:00,80.0,-99.9,29.97,South,178,6.0,8.0,-999,-99.99,,,-99.99,,2013-07-27 20:02:00,
2013-07-27 15:12:00,80.0,-99.9,29.97,SSE,158,7.0,8.0,-999,-99.99,,,-99.99,,2013-07-27 20:12:00,
2013-07-27 15:33:00,80.0,-99.9,29.96,SSW,198,5.0,6.0,-999,-99.99,,,-99.99,,2013-07-27 20:33:00,
2013-07-27 15:43:00,81.0,-99.9,29.96,South,189,3.0,5.0,-999,-99.99,,,-99.99,,2013-07-27 20:43:00,
2013-07-27 15:52:00,81.0,-99.9,29.96,South,190,4.0,6.0,-999,-99.99,,,-99.99,,2013-07-27 20:52:00,
2013-07-27 16:03:00,81.0,-99.9,29.95,SSW,192,4.0,6.0,-999,-99.99,,,-99.99,,2013-07-27 21:03:00,
2013-07-27 16:12:00,81.0,-99.9,29.94,South,187,4.0,6.0,-999,-99.99,,,-99.99,,2013-07-27 21:12:00,
2013-07-27 16:33:00,81.0,-99.9,29.95,SSW,203,4.0,4.0,-999,-99.99,,,-99.99,,2013-07-27 21:33:00,
2013-07-27 16:43:00,81.0,-99.9,29.94,South,182,4.0,6.0,-999,-99.99,,,-99.99,,2013-07-27 21:43:00,
2013-07-27 16:53:00,81.0,-99.9,29.94,South,177,4.0,6.0,-999,-99.99,,,-99.99,,2013-07-27 21:53:00,
2013-07-27 17:02:00,82.0,-99.9,29.94,South,179,5.0,8.0,-999,-99.99,,,-99.99,,2013-07-27 22:02:00,
2013-07-27 17:13:00,82.0,-99.9,29.94,South,178,6.0,9.0,-999,-99.99,,,-99.99,,2013-07-27 22:13:00,
2013-07-27 17:33:00,81.0,-99.9,29.93,SSE,163,10.0,12.0,-999,-99.99,,,-99.99,,2013-07-27 22:33:00,
2013-07-27 17:43:00,81.0,-99.9,29.93,SSE,154,9.0,11.0,-999,-99.99,,,-99.99,,2013-07-27 22:43:00,
2013-07-27 17:53:00,81.0,-99.9,29.93,SSE,165,10.0,11.0,-999,-99.99,,,-99.99,,2013-07-27 22:53:00,
2013-07-27 18:02:00,81.0,-99.9,29.95,South,171,5.0,9.0,-999,-99.99,,,-99.99,,2013-07-27 23:02:00,
2013-07-27 18:12:00,81.0,-99.9,29.95,South,189,6.0,6.0,-999,-99.99,,,-99.99,,2013-07-27 23:12:00,
2013-07-27 18:33:00,80.0,-99.9,29.95,SSE,162,4.0,5.0,-999,-99.99,,,-99.99,,2013-07-27 23:33:00,
2013-07-27 18:44:00,80.0,-99.9,29.95,SE,134,3.0,5.0,-999,-99.99,,,-99.99,,2013-07-27 23:44:00,
2013-07-27 18:53:00,75.0,-99.9,29.98,WNW,285,17.0,20.0,-999,-99.99,,,-99.99,,2013-07-27 23:53:00,
2013-07-27 19:02:00,76.0,-99.9,29.96,NE,47,2.0,6.0,-999,-99.99,,,-99.99,,2013-07-28 00:02:00,
2013-07-27 19:12:00,76.0,-99.9,29.97,NW,320,3.0,4.0,-999,-99.99,,,-99.99,,2013-07-28 00:12:00,
2013-07-27 19:32:00,77.0,-99.9,29.96,ESE,110,8.0,10.0,-999,-99.99,,,-99.99,,2013-07-28 00:32:00,
2013-07-27 19:44:00,77.0,-99.9,29.96,ESE,107,9.0,16.0,-999,-99.99,,,-99.99,,2013-07-28 00:44:00,
2013-07-27 19:53:00,76.0,-99.9,29.96,ESE,110,15.0,16.0,-999,-99.99,,,-99.99,,2013-07-28 00:53:00,
2013-07-27 20:02:00,77.0,-99.9,29.95,East,91,12.0,12.0,-999,-99.99,,,-99.99,,2013-07-28 01:02:00,
2013-07-27 20:12:00,77.0,-99.9,29.96,East,98,11.0,13.0,-999,-99.99,,,-99.99,,2013-07-28 01:12:00,
2013-07-27 20:32:00,79.0,-99.9,29.95,SE,135,13.0,15.0,-999,-99.99,,,-99.99,,2013-07-28 01:32:00,
2013-07-27 20:43:00,79.0,-99.9,29.95,SE,127,13.0,15.0,-999,-99.99,,,-99.99,,2013-07-28 01:43:00,
2013-07-27 20:53:00,79.0,-99.9,29.94,SE,132,15.0,16.0,-999,-99.99,,,-99.99,,2013-07-28 01:53:00,
2013-07-27 21:03:00,79.0,-99.9,29.92,SE,142,19.0,21.0,-999,-99.99,,,-99.99,,2013-07-28 02:03:00,
2013-07-27 21:12:00,79.0,-99.9,29.91,SE,142,19.0,25.0,-999,-99.99,,,-99.99,,2013-07-28 02:12:00,
2013-07-27 21:32:00,80.0,-99.9,29.94,SSE,152,18.0,20.0,-999,-99.99,,,-99.99,,2013-07-28 02:32:00,
2013-07-27 21:43:00,80.0,-99.9,29.95,SSE,161,15.0,17.0,-999,-99.99,,,-99.99,,2013-07-28 02:43:00,
2013-07-27 21:53:00,80.0,-99.9,29.95,SSE,153,13.0,16.0,-999,-99.99,,,-99.99,,2013-07-28 02:53:00,
2013-07-27 22:03:00,81.0,-99.9,29.94,SSE,147,15.0,16.0,-999,-99.99,,,-99.99,,2013-07-28 03:03:00,
2013-07-27 22:12:00,81.0,-99.9,29.94,SSE,149,15.0,18.0,-999,-99.99,,,-99.99,,2013-07-28 03:12:00,
2013-07-27 22:32:00,80.0,-99.9,29.95,SE,135,14.0,19.0,-999,-99.99,,,-99.99,,2013-07-28 03:32:00,
2013-07-27 22:43:00,81.0,-99.9,29.96,SE,144,12.0,16.0,-999,-99.99,,,-99.99,,2013-07-28 03:43:00,
2013-07-27 22:53:00,81.0,-99.9,29.95,South,177,12.0,16.0,-999,-99.99,,,-99.99,,2013-07-28 03:53:00,
2013-07-27 23:02:00,81.0,-99.9,29.94,South,177,18.0,24.0,-999,-99.99,,,-99.99,,2013-07-28 04:02:00,
2013-07-27 23:12:00,80.0,-99.9,29.94,South,187,20.0,26.0,-999,-99.99,,,-99.99,,2013-07-28 04:12:00,
2013-07-27 23:32:00,79.0,-99.9,29.94,South,189,12.0,17.0,-999,-99.99,,,-99.99,,2013-07-28 04:32:00,
2013-07-27 23:43:00,79.0,-99.9,29.94,South,184,15.0,19.0,-999,-99.99,,,-99.99,,2013-07-28 04:43:00,
2013-07-27 23:53:00,79.0,-99.9,29.93,South,183,17.0,20.0,-999,-99.99,,,-99.99,,2013-07-28 04:53:00,